createdAt,value
2018-09-19T00:01:14.927Z,101332.25
2018-09-19T00:03:43.345Z,101340.20
2018-09-19T00:06:11.715Z,101345.97
2018-09-19T00:08:40.310Z,101336.81
2018-09-19T00:11:08.872Z,101335.98
2018-09-19T00:13:37.375Z,101336.03
2018-09-19T00:16:05.770Z,101341.34
2018-09-19T00:18:34.336Z,101351.47
2018-09-19T00:21:02.898Z,101348.03
2018-09-19T00:23:31.403Z,101352.03
2018-09-19T00:25:59.859Z,101356.89
2018-09-19T00:28:28.258Z,101356.08
2018-09-19T00:30:56.634Z,101355.30
2018-09-19T00:33:25.031Z,101358.42
2018-09-19T00:35:53.397Z,101361.55
2018-09-19T00:38:21.783Z,101362.91
2018-09-19T00:40:50.160Z,101360.78
2018-09-19T00:43:18.545Z,101365.66
2018-09-19T00:45:46.918Z,101361.34
2018-09-19T00:48:15.306Z,101363.56
2018-09-19T00:50:43.674Z,101360.98
2018-09-19T00:53:12.062Z,101361.02
2018-09-19T00:55:40.426Z,101361.05
2018-09-19T00:58:08.822Z,101356.25
2018-09-19T01:00:37.188Z,101352.34
2018-09-19T01:03:05.614Z,101366.34
2018-09-19T01:05:33.984Z,101372.50
2018-09-19T01:08:02.390Z,101379.97
2018-09-19T01:10:30.762Z,101385.70
2018-09-19T01:12:59.166Z,101381.84
2018-09-19T01:15:27.538Z,101376.64
2018-09-19T01:17:55.948Z,101381.03
2018-09-19T01:20:24.322Z,101382.37
2018-09-19T01:22:52.707Z,101386.79
2018-09-19T01:25:21.128Z,101392.91
2018-09-19T01:27:49.519Z,101394.69
2018-09-19T01:30:17.938Z,101399.52
2018-09-19T01:32:46.317Z,101397.83
2018-09-19T01:35:14.726Z,101398.72
2018-09-19T01:37:43.100Z,101405.73
2018-09-19T01:40:11.503Z,101415.36
2018-09-19T01:42:39.874Z,101409.27
2018-09-19T01:45:08.297Z,101415.41
2018-09-19T01:47:36.671Z,101425.48
2018-09-19T01:50:05.163Z,101426.37
2018-09-19T01:52:33.507Z,101429.44
2018-09-19T01:55:01.918Z,101428.16
2018-09-19T01:57:30.309Z,101433.42
2018-09-19T01:59:58.703Z,101439.97
2018-09-19T02:02:27.107Z,101437.81
2018-09-19T02:04:56.015Z,101445.27
2018-09-19T02:07:24.389Z,101440.91
2018-09-19T02:09:52.794Z,101439.61
2018-09-19T02:12:21.166Z,101442.23
2018-09-19T02:14:49.570Z,101455.34
2018-09-19T02:17:17.938Z,101448.77
2018-09-19T02:19:46.334Z,101447.48
2018-09-19T02:22:14.710Z,101447.47
2018-09-19T02:24:43.427Z,101448.36
2018-09-19T02:27:11.798Z,101452.73
2018-09-19T02:29:40.199Z,101453.17
2018-09-19T02:32:08.574Z,101447.49
2018-09-19T02:34:37.011Z,101451.01
2018-09-19T02:37:05.390Z,101453.20
2018-09-19T02:39:33.793Z,101451.47
2018-09-19T02:42:02.196Z,101455.39
2018-09-19T02:44:30.590Z,101458.45
2018-09-19T02:46:58.971Z,101463.28
2018-09-19T02:49:27.375Z,101458.47
2018-09-19T02:51:59.458Z,101461.09
2018-09-19T02:54:29.410Z,101459.35
2018-09-19T02:56:57.970Z,101455.41
2018-09-19T02:59:26.575Z,101458.48
2018-09-19T03:01:54.965Z,101464.61
2018-09-19T03:04:23.375Z,101454.11
2018-09-19T03:06:51.753Z,101451.06
2018-09-19T03:09:20.164Z,101456.30
2018-09-19T03:11:48.538Z,101454.98
2018-09-19T03:14:16.939Z,101461.11
2018-09-19T03:16:45.322Z,101458.06
2018-09-19T03:19:13.713Z,101459.38
2018-09-19T03:21:42.087Z,101466.36
2018-09-19T03:24:10.502Z,101472.50
2018-09-19T03:26:38.899Z,101479.94
2018-09-19T03:29:07.280Z,101479.48
2018-09-19T03:31:35.685Z,101476.86
2018-09-19T03:34:04.085Z,101473.37
2018-09-19T03:36:32.490Z,101479.05
2018-09-19T03:39:00.872Z,101480.81
2018-09-19T03:41:29.278Z,101483.88
2018-09-19T03:43:57.650Z,101481.24
2018-09-19T03:46:26.059Z,101478.61
2018-09-19T03:48:54.435Z,101478.63
2018-09-19T03:51:22.841Z,101483.01
2018-09-19T03:53:51.233Z,101486.94
2018-09-19T03:56:19.660Z,101493.92
2018-09-19T03:58:48.428Z,101500.46
2018-09-19T04:01:16.845Z,101494.36
2018-09-19T04:03:45.219Z,101499.18
2018-09-19T04:06:13.628Z,101497.41
2018-09-19T04:08:42.009Z,101504.41
2018-09-19T04:11:10.409Z,101509.22
2018-09-19T04:13:38.815Z,101510.09
2018-09-19T04:16:07.234Z,101508.77
2018-09-19T04:18:35.620Z,101510.52
2018-09-19T04:21:04.010Z,101510.09
2018-09-19T04:23:32.383Z,101507.46
2018-09-19T04:26:00.814Z,101512.70
2018-09-19T04:28:29.194Z,101516.19
2018-09-19T04:30:57.648Z,101517.52
2018-09-19T04:33:26.016Z,101521.44
2018-09-19T04:35:54.405Z,101521.46
2018-09-19T04:38:22.789Z,101516.65
2018-09-19T04:40:51.177Z,101517.52
2018-09-19T04:43:19.555Z,101514.00
2018-09-19T04:45:47.958Z,101524.50
2018-09-19T04:48:16.358Z,101529.31
2018-09-19T04:50:44.756Z,101530.16
2018-09-19T04:53:13.121Z,101529.30
2018-09-19T04:55:41.530Z,101526.19
2018-09-19T04:58:09.915Z,101525.74
2018-09-19T05:00:38.315Z,101530.56
2018-09-19T05:03:06.691Z,101533.62
2018-09-19T05:05:35.161Z,101529.23
2018-09-19T05:08:03.507Z,101533.16
2018-09-19T05:15:28.947Z,101535.34
2018-09-19T05:17:57.315Z,101542.76
2018-09-19T05:20:26.037Z,101542.31
2018-09-19T05:22:54.916Z,101548.86
2018-09-19T05:25:23.543Z,101555.43
2018-09-19T05:27:51.923Z,101555.01
2018-09-19T05:30:20.305Z,101550.65
2018-09-19T05:32:48.703Z,101555.45
2018-09-19T05:35:17.074Z,101555.92
2018-09-19T05:37:45.478Z,101562.49
2018-09-19T05:40:13.853Z,101562.51
2018-09-19T05:42:42.249Z,101569.04
2018-09-19T05:45:10.636Z,101566.89
2018-09-19T05:47:39.035Z,101568.21
2018-09-19T05:50:07.412Z,101567.78
2018-09-19T05:52:35.814Z,101573.45
2018-09-19T05:55:04.194Z,101572.58
2018-09-19T05:57:32.594Z,101569.52
2018-09-19T06:00:01.100Z,101575.66
2018-09-19T06:02:29.504Z,101576.10
2018-09-19T06:04:57.908Z,101580.90
2018-09-19T06:07:26.335Z,101588.32
2018-09-19T06:09:54.705Z,101587.87
2018-09-19T06:12:23.106Z,101589.63
2018-09-19T06:14:51.490Z,101592.28
2018-09-19T06:17:19.895Z,101591.80
2018-09-19T06:19:48.339Z,101593.56
2018-09-19T06:22:16.734Z,101599.22
2018-09-19T06:24:45.126Z,101602.69
2018-09-19T06:27:13.574Z,101599.59
2018-09-19T06:29:41.914Z,101597.38
2018-09-19T06:32:10.303Z,101601.30
2018-09-19T06:34:38.680Z,101601.70
2018-09-19T06:37:07.109Z,101602.98
2018-09-19T06:39:35.472Z,101613.02
2018-09-19T06:42:03.867Z,101616.50
2018-09-19T06:44:32.250Z,101617.81
2018-09-19T06:47:00.711Z,101614.66
2018-09-19T06:49:29.044Z,101618.56
2018-09-19T06:51:57.492Z,101620.25
2018-09-19T06:54:25.830Z,101624.56
2018-09-19T06:56:54.223Z,101627.11
2018-09-19T06:59:22.684Z,101627.02
2018-09-19T07:01:51.094Z,101621.24
2018-09-19T07:04:19.464Z,101622.45
2018-09-19T07:06:47.952Z,101626.37
2018-09-19T07:09:16.318Z,101630.66
2018-09-19T07:11:44.715Z,101638.48
2018-09-19T07:14:13.089Z,101645.86
2018-09-19T07:16:41.498Z,101637.91
2018-09-19T07:19:09.865Z,101639.61
2018-09-19T07:21:38.433Z,101643.11
2018-09-19T07:24:06.808Z,101654.09
2018-09-19T07:26:35.199Z,101655.83
2018-09-19T07:29:03.677Z,101651.42
2018-09-19T07:31:32.041Z,101654.92
2018-09-19T07:34:01.435Z,101658.83
2018-09-19T07:36:29.806Z,101655.73
2018-09-19T07:38:58.204Z,101654.37
2018-09-19T07:41:26.570Z,101651.66
2018-09-19T07:43:54.969Z,101652.93
2018-09-19T07:46:23.590Z,101653.30
2018-09-19T07:48:52.003Z,101657.20
2018-09-19T07:51:20.375Z,101664.64
2018-09-19T07:53:48.767Z,101658.41
2018-09-19T07:56:17.178Z,101664.95
2018-09-19T07:58:45.567Z,101668.81
2018-09-19T08:01:14.002Z,101667.44
2018-09-19T08:03:42.357Z,101658.16
2018-09-19T08:06:10.738Z,101665.12
2018-09-19T08:08:39.133Z,101663.33
2018-09-19T08:11:07.504Z,101661.49
2018-09-19T08:13:35.939Z,101657.03
2018-09-19T08:16:04.309Z,101667.53
2018-09-19T08:18:32.797Z,101667.02
2018-09-19T08:21:01.186Z,101667.37
2018-09-19T08:23:29.602Z,101659.80
2018-09-19T08:25:58.000Z,101660.59
2018-09-19T08:28:26.416Z,101657.42
2018-09-19T08:30:54.784Z,101668.30
2018-09-19T08:33:23.187Z,101666.86
2018-09-19T08:35:51.557Z,101639.66
2018-09-19T08:38:19.944Z,101664.42
2018-09-19T08:45:41.477Z,101662.83
2018-09-19T08:48:09.925Z,101663.57
2018-09-19T08:50:38.301Z,101663.48
2018-09-19T08:53:06.710Z,101663.34
2018-09-19T08:55:35.079Z,101652.65
2018-09-19T08:58:03.485Z,101651.23
2018-09-19T09:00:31.890Z,101658.18
2018-09-19T09:03:00.287Z,101664.64
2018-09-19T09:05:28.725Z,101670.19
2018-09-19T09:07:57.074Z,101670.93
2018-09-19T09:10:25.449Z,101666.37
2018-09-19T09:12:53.849Z,101659.52
2018-09-19T09:15:22.225Z,101663.77
2018-09-19T09:17:50.620Z,101666.70
2018-09-19T09:20:18.982Z,101660.86
2018-09-19T09:22:47.351Z,101663.89
2018-09-19T09:25:15.865Z,101662.11
2018-09-19T09:27:44.248Z,101660.77
2018-09-19T09:30:12.644Z,101661.20
2018-09-19T09:32:41.015Z,101658.07
2018-09-19T09:35:09.403Z,101655.33
2018-09-19T09:37:37.779Z,101655.24
2018-09-19T09:40:06.191Z,101651.98
2018-09-19T09:42:34.560Z,101649.64
2018-09-19T09:45:02.958Z,101649.14
2018-09-19T09:47:31.327Z,101646.39
2018-09-19T09:49:59.719Z,101649.36
2018-09-19T09:52:28.108Z,101648.31
2018-09-19T09:54:56.502Z,101644.23
2018-09-19T09:57:24.876Z,101639.77
2018-09-19T09:59:53.275Z,101637.02
2018-09-19T10:02:21.662Z,101638.23
2018-09-19T10:04:50.083Z,101635.88
2018-09-19T10:07:18.449Z,101634.39
2018-09-19T10:09:46.844Z,101632.86
2018-09-19T10:12:15.215Z,101631.00
2018-09-19T10:14:43.604Z,101618.93
2018-09-19T10:17:11.974Z,101619.19
2018-09-19T10:19:40.362Z,101615.00
2018-09-19T10:22:08.741Z,101614.33
2018-09-19T10:24:37.164Z,101617.61
2018-09-19T10:27:05.538Z,101615.63
2018-09-19T10:29:33.977Z,101615.88
2018-09-19T10:32:02.347Z,101614.80
2018-09-19T10:34:30.737Z,101610.19
2018-09-19T10:36:59.110Z,101602.53
2018-09-19T10:39:27.498Z,101597.06
2018-09-19T10:41:55.870Z,101594.61
2018-09-19T10:44:24.259Z,101591.72
2018-09-19T10:46:52.643Z,101587.97
2018-09-19T10:49:21.064Z,101590.85
2018-09-19T10:51:49.450Z,101594.20
2018-09-19T10:54:17.848Z,101580.31
2018-09-19T10:56:46.233Z,101588.50
2018-09-19T10:59:14.655Z,101590.48
2018-09-19T11:01:43.070Z,101586.70
2018-09-19T11:04:11.551Z,101598.01
2018-09-19T11:06:39.918Z,101598.66
2018-09-19T11:09:10.298Z,101593.59
2018-09-19T11:11:38.830Z,101581.95
2018-09-19T11:14:07.277Z,101586.65
2018-09-19T11:16:35.650Z,101590.95
2018-09-19T11:19:04.038Z,101589.91
2018-09-19T11:21:32.415Z,101591.94
2018-09-19T11:24:00.823Z,101587.30
2018-09-19T11:26:29.252Z,101585.70
2018-09-19T11:28:57.631Z,101585.89
2018-09-19T11:31:26.032Z,101577.67
2018-09-19T11:33:54.398Z,101586.35
2018-09-19T11:36:22.785Z,101587.48
2018-09-19T11:38:51.141Z,101591.62
2018-09-19T11:41:19.530Z,101594.59
2018-09-19T11:43:47.907Z,101593.14
2018-09-19T11:46:16.304Z,101596.11
2018-09-19T11:48:44.729Z,101605.25
2018-09-19T11:51:13.109Z,101594.48
2018-09-19T11:53:41.494Z,101599.69
2018-09-19T11:56:09.883Z,101598.23
2018-09-19T11:58:38.254Z,101597.72
2018-09-19T12:01:07.003Z,101596.70
2018-09-19T12:03:35.421Z,101590.31
2018-09-19T12:06:03.999Z,101588.89
2018-09-19T12:08:32.367Z,101585.24
2018-09-19T12:11:00.762Z,101579.33
2018-09-19T12:13:29.121Z,101572.14
2018-09-19T12:15:57.518Z,101567.95
2018-09-19T12:18:25.885Z,101567.25
2018-09-19T12:20:54.283Z,101571.80
2018-09-19T12:23:22.655Z,101574.23
2018-09-19T12:25:51.097Z,101570.50
2018-09-19T12:28:19.471Z,101565.00
2018-09-19T12:30:47.864Z,101563.44
2018-09-19T12:33:16.250Z,101568.97
2018-09-19T12:35:44.654Z,101559.47
2018-09-19T12:38:13.027Z,101565.47
2018-09-19T12:40:42.575Z,101564.00
2018-09-19T12:43:10.937Z,101560.68
2018-09-19T12:45:39.330Z,101561.00
2018-09-19T12:48:07.706Z,101571.00
2018-09-19T12:50:36.104Z,101565.53
2018-09-19T12:53:04.538Z,101561.02
2018-09-19T12:55:32.943Z,101563.48
2018-09-19T12:58:01.310Z,101556.35
2018-09-19T13:00:29.711Z,101549.22
2018-09-19T13:02:58.711Z,101537.17
2018-09-19T13:05:27.103Z,101534.75
2018-09-19T13:07:55.474Z,101532.37
2018-09-19T13:10:23.858Z,101530.89
2018-09-19T13:12:52.227Z,101530.75
2018-09-19T13:15:20.632Z,101527.64
2018-09-19T13:17:49.001Z,101526.70
2018-09-19T13:20:17.404Z,101532.41
2018-09-19T13:22:45.772Z,101532.75
2018-09-19T13:25:14.166Z,101531.36
2018-09-19T13:27:42.559Z,101536.16
2018-09-19T13:30:10.923Z,101536.08
2018-09-19T13:32:39.326Z,101531.55
2018-09-19T13:35:07.691Z,101530.55
2018-09-19T13:37:36.078Z,101529.55
2018-09-19T13:40:04.727Z,101532.09
2018-09-19T13:42:33.123Z,101530.20
2018-09-19T13:45:01.646Z,101527.01
2018-09-19T13:47:30.051Z,101515.81
2018-09-19T13:50:07.871Z,101521.89
2018-09-19T13:52:36.268Z,101518.69
2018-09-19T13:55:04.728Z,101520.44
2018-09-19T13:57:33.118Z,101525.69
2018-09-19T14:00:01.497Z,101517.63
2018-09-19T14:02:29.919Z,101510.48
2018-09-19T14:04:58.292Z,101504.63
2018-09-19T14:07:26.688Z,101495.67
2018-09-19T14:09:55.054Z,101486.75
2018-09-19T14:12:23.498Z,101482.66
2018-09-19T14:14:51.837Z,101484.41
2018-09-19T14:17:20.234Z,101480.88
2018-09-19T14:19:48.605Z,101472.94
2018-09-19T14:22:17.002Z,101466.66
2018-09-19T14:24:45.393Z,101461.42
2018-09-19T14:27:13.781Z,101458.27
2018-09-19T14:29:42.161Z,101455.55
2018-09-19T14:32:10.550Z,101454.21
2018-09-19T14:34:38.922Z,101455.55
2018-09-19T14:37:07.318Z,101458.33
2018-09-19T14:39:35.711Z,101453.63
2018-09-19T14:42:04.120Z,101459.48
2018-09-19T14:44:32.499Z,101464.11
2018-09-19T14:47:00.888Z,101458.00
2018-09-19T14:49:29.263Z,101465.68
2018-09-19T14:51:57.679Z,101469.77
2018-09-19T14:54:26.102Z,101468.02
2018-09-19T14:56:55.027Z,101473.02
2018-09-19T14:59:23.402Z,101474.03
2018-09-19T15:01:52.086Z,101471.42
2018-09-19T15:04:20.650Z,101474.23
2018-09-19T15:06:49.047Z,101474.70
2018-09-19T15:09:17.423Z,101475.70
2018-09-19T15:11:45.844Z,101474.91
2018-09-19T15:14:14.219Z,101478.99
2018-09-19T15:16:42.660Z,101485.72
2018-09-19T15:19:11.040Z,101483.58
2018-09-19T15:21:39.487Z,101485.00
2018-09-19T15:24:07.882Z,101482.00
2018-09-19T15:26:36.315Z,101476.78
2018-09-19T15:29:04.703Z,101482.20
2018-09-19T15:31:33.070Z,101476.06
2018-09-19T15:34:01.471Z,101475.73
2018-09-19T15:36:29.848Z,101472.32
2018-09-19T15:38:58.233Z,101468.47
2018-09-19T15:41:26.618Z,101469.41
2018-09-19T15:43:55.014Z,101466.42
2018-09-19T15:46:23.405Z,101466.56
2018-09-19T15:48:51.807Z,101465.28
2018-09-19T15:51:20.183Z,101459.67
2018-09-19T15:53:48.569Z,101459.81
2018-09-19T15:56:16.930Z,101455.06
2018-09-19T15:58:45.327Z,101453.41
2018-09-19T16:01:13.699Z,101450.08
2018-09-19T16:03:42.107Z,101446.74
2018-09-19T16:06:10.554Z,101449.59
2018-09-19T16:08:38.918Z,101451.59
2018-09-19T16:11:07.447Z,101452.25
2018-09-19T16:13:35.854Z,101448.45
2018-09-19T16:16:04.250Z,101448.64
2018-09-19T16:18:32.642Z,101445.69
2018-09-19T16:21:01.044Z,101442.88
2018-09-19T16:23:29.452Z,101437.44
2018-09-19T16:25:57.973Z,101434.14
2018-09-19T16:28:26.367Z,101427.64
2018-09-19T16:30:54.743Z,101428.77
2018-09-19T16:33:23.138Z,101426.67
2018-09-19T16:35:51.520Z,101430.33
2018-09-19T16:38:19.910Z,101423.80
2018-09-19T16:40:48.277Z,101420.47
2018-09-19T16:43:16.680Z,101416.66
2018-09-19T16:45:45.085Z,101419.06
2018-09-19T16:48:13.483Z,101417.05
2018-09-19T16:50:41.915Z,101415.94
2018-09-19T16:53:10.317Z,101408.14
2018-09-19T16:55:38.699Z,101408.39
2018-09-19T16:58:07.109Z,101401.53
2018-09-19T17:00:35.483Z,101407.48
2018-09-19T17:03:03.882Z,101407.28
2018-09-19T17:05:32.284Z,101400.47
2018-09-19T17:08:00.725Z,101402.48
2018-09-19T17:10:29.137Z,101403.23
2018-09-19T17:12:57.529Z,101396.88
2018-09-19T17:15:25.971Z,101401.97
2018-09-19T17:17:54.329Z,101400.92
2018-09-19T17:20:22.706Z,101400.27
2018-09-19T17:22:51.090Z,101401.83
2018-09-19T17:25:19.509Z,101395.86
2018-09-19T17:27:47.877Z,101398.25
2018-09-19T17:30:16.279Z,101394.08
2018-09-19T17:32:44.646Z,101402.20
2018-09-19T17:35:13.039Z,101396.22
2018-09-19T17:37:41.452Z,101400.82
2018-09-19T17:40:09.851Z,101401.52
2018-09-19T17:42:38.238Z,101406.11
2018-09-19T17:45:06.999Z,101404.51
2018-09-19T17:47:35.531Z,101411.40
2018-09-19T17:50:03.971Z,101409.00
2018-09-19T17:52:32.347Z,101412.34
2018-09-19T17:55:00.738Z,101410.77
2018-09-19T17:57:29.107Z,101412.34
2018-09-19T17:59:57.507Z,101412.52
2018-09-19T18:02:25.990Z,101411.80
2018-09-19T18:04:54.821Z,101411.11
2018-09-19T18:07:23.199Z,101419.23
2018-09-19T18:09:51.590Z,101412.77
2018-09-19T18:12:19.962Z,101409.03
2018-09-19T18:14:48.390Z,101410.56
2018-09-19T18:17:16.748Z,101419.54
2018-09-19T18:19:45.156Z,101411.39
2018-09-19T18:22:13.531Z,101417.68
2018-09-19T18:24:41.951Z,101426.19
2018-09-19T18:27:10.368Z,101424.16
2018-09-19T18:29:38.759Z,101423.86
2018-09-19T18:32:07.161Z,101432.33
2018-09-19T18:34:35.545Z,101424.97
2018-09-19T18:37:03.904Z,101425.92
2018-09-19T18:39:32.308Z,101422.53
2018-09-19T18:42:00.679Z,101424.81
2018-09-19T18:44:29.071Z,101426.69
2018-09-19T18:46:57.446Z,101422.78
2018-09-19T18:49:25.840Z,101431.73
2018-09-19T18:51:54.223Z,101437.13
2018-09-19T18:54:23.625Z,101436.32
2018-09-19T18:56:52.615Z,101436.44
2018-09-19T18:59:21.178Z,101440.95
2018-09-19T19:01:50.583Z,101439.72
2018-09-19T19:04:19.027Z,101445.07
2018-09-19T19:06:47.403Z,101445.16
2018-09-19T19:09:15.796Z,101448.81
2018-09-19T19:11:44.179Z,101455.94
2018-09-19T19:14:12.573Z,101453.81
2018-09-19T19:16:40.945Z,101457.41
2018-09-19T19:19:09.343Z,101454.00
2018-09-19T19:21:37.715Z,101464.61
2018-09-19T19:24:06.099Z,101460.27
2018-09-19T19:26:34.505Z,101463.86
2018-09-19T19:29:02.878Z,101458.66
2018-09-19T19:31:31.271Z,101460.92
2018-09-19T19:33:59.637Z,101454.81
2018-09-19T19:36:28.040Z,101460.59
2018-09-19T19:38:56.420Z,101464.18
2018-09-19T19:41:24.818Z,101464.26
2018-09-19T19:43:53.257Z,101466.12
2018-09-19T19:46:21.771Z,101468.84
2018-09-19T19:48:50.133Z,101465.84
2018-09-19T19:51:18.532Z,101469.45
2018-09-19T19:53:47.152Z,101466.02
2018-09-19T19:56:15.702Z,101470.95
2018-09-19T19:58:44.082Z,101471.52
2018-09-19T20:01:12.551Z,101472.93
2018-09-19T20:03:40.927Z,101468.17
2018-09-19T20:06:09.403Z,101465.61
2018-09-19T20:08:37.775Z,101463.91
2018-09-19T20:11:06.181Z,101462.19
2018-09-19T20:13:34.553Z,101461.83
2018-09-19T20:16:02.951Z,101464.98
2018-09-19T20:18:31.338Z,101462.38
2018-09-19T20:20:59.738Z,101457.22
2018-09-19T20:23:28.115Z,101457.27
2018-09-19T20:25:56.530Z,101466.17
2018-09-19T20:28:24.910Z,101463.16
2018-09-19T20:30:53.307Z,101468.52
2018-09-19T20:33:21.715Z,101471.23
2018-09-19T20:35:50.174Z,101467.77
2018-09-19T20:38:18.545Z,101466.92
2018-09-19T20:40:46.943Z,101471.39
2018-09-19T20:43:15.327Z,101467.91
2018-09-19T20:45:43.731Z,101465.75
2018-09-19T20:48:12.112Z,101470.65
2018-09-19T20:50:40.511Z,101474.22
2018-09-19T20:53:08.890Z,101469.47
2018-09-19T20:55:37.291Z,101470.80
2018-09-19T20:58:05.674Z,101471.73
2018-09-19T21:00:34.065Z,101473.98
2018-09-19T21:03:02.436Z,101470.95
2018-09-19T21:05:30.830Z,101469.70
2018-09-19T21:07:59.215Z,101466.66
2018-09-19T21:10:27.613Z,101473.28
2018-09-19T21:12:55.995Z,101468.98
2018-09-19T21:15:24.422Z,101466.81
2018-09-19T21:17:52.800Z,101469.92
2018-09-19T21:20:21.226Z,101468.18
2018-09-19T21:22:49.606Z,101462.10
2018-09-19T21:25:18.006Z,101463.45
2018-09-19T21:27:46.406Z,101458.67
2018-09-19T21:30:14.783Z,101462.67
2018-09-19T21:32:43.191Z,101461.41
2018-09-19T21:35:11.565Z,101457.92
2018-09-19T21:37:39.971Z,101457.97
2018-09-19T21:40:08.381Z,101459.30
2018-09-19T21:42:36.782Z,101459.31
2018-09-19T21:45:05.390Z,101456.72
2018-09-19T21:47:33.803Z,101458.06
2018-09-19T21:50:02.421Z,101458.53
2018-09-19T21:52:30.937Z,101460.30
2018-09-19T21:54:59.596Z,101454.63
2018-09-19T21:57:28.098Z,101453.77
2018-09-19T21:59:56.483Z,101452.92
2018-09-19T22:02:24.887Z,101454.28
2018-09-19T22:04:53.264Z,101454.77
2018-09-19T22:07:21.667Z,101448.25
2018-09-19T22:09:50.038Z,101453.17
2018-09-19T22:12:18.438Z,101451.47
2018-09-19T22:14:46.817Z,101448.50
2018-09-19T22:17:15.219Z,101449.50
2018-09-19T22:19:43.595Z,101448.30
2018-09-19T22:22:12.018Z,101452.82
2018-09-19T22:24:40.426Z,101444.09
2018-09-19T22:27:08.826Z,101445.92
2018-09-19T22:29:37.211Z,101448.63
2018-09-19T22:32:05.611Z,101446.10
2018-09-19T22:34:33.986Z,101449.70
2018-09-19T22:37:02.394Z,101448.05
2018-09-19T22:39:30.778Z,101453.38
2018-09-19T22:41:59.178Z,101453.42
2018-09-19T22:44:27.553Z,101450.43
2018-09-19T22:46:55.952Z,101451.80
2018-09-19T22:49:24.332Z,101452.31
2018-09-19T22:51:52.723Z,101457.63
2018-09-19T22:54:21.090Z,101458.55
2018-09-19T22:56:49.484Z,101460.36
2018-09-19T22:59:17.859Z,101455.14
2018-09-19T23:01:46.309Z,101458.69
2018-09-19T23:04:14.666Z,101460.50
2018-09-19T23:06:43.057Z,101470.18
2018-09-19T23:09:11.439Z,101466.27
2018-09-19T23:11:39.846Z,101464.52
2018-09-19T23:14:08.228Z,101466.28
2018-09-19T23:16:36.617Z,101463.23
2018-09-19T23:19:04.997Z,101461.10
2018-09-19T23:21:33.486Z,101468.59
2018-09-19T23:24:01.882Z,101464.64
2018-09-19T23:26:30.297Z,101471.27
2018-09-19T23:28:58.730Z,101476.53
2018-09-19T23:31:27.097Z,101472.17
2018-09-19T23:33:55.498Z,101478.79
2018-09-19T23:36:23.866Z,101477.92
2018-09-19T23:38:52.267Z,101486.27
2018-09-19T23:41:20.646Z,101493.30
2018-09-19T23:43:49.089Z,101482.36
2018-09-19T23:46:17.468Z,101491.57
2018-09-19T23:48:45.863Z,101490.71
2018-09-19T23:51:14.242Z,101491.61
2018-09-19T23:53:42.642Z,101497.77
2018-09-19T23:56:11.018Z,101505.67
2018-09-19T23:58:39.418Z,101508.75
